Time;durP1;ratioP1;P1;durP2;ratioP2;P2;SDS_P1;SDS_P2;PMS_P1;PMS_P2;Temp;Humidity;BMP_temperature;BMP_pressure;BME280_temperature;BME280_humidity;BME280_pressure;Samples;Min_cycle;Max_cycle;Signal;HPM_P1;HPM_P2
2021/06/20 00:00:00;;;;;;;;;;;;;;;26.64;52.75;100433.25;5058553;28;479;-42
2021/06/20 00:02:25;;;;;;;;;;;;;;;26.67;53.28;100418.53;5058058;28;991;-43
2021/06/20 00:04:50;;;;;;;;;;;;;;;26.62;53.06;100421.78;5057757;28;780;-44
2021/06/20 00:07:16;;;;;;;;;;;;;;;26.75;52.62;100421.13;5058512;28;740;-43
2021/06/20 00:09:41;;;;;;;;;;;;;;;26.69;53.05;100413.78;5058296;28;1901;-43
2021/06/20 00:12:07;;;;;;;;;;;;;;;26.63;53.19;100421.59;5058289;28;1112;-43
2021/06/20 00:14:32;;;;;;;;;;;;;;;26.72;52.58;100411.56;5058300;28;835;-43
2021/06/20 00:16:57;;;;;;;;;;;;;;;26.71;52.63;100414.44;5057734;28;947;-39
2021/06/20 00:19:22;;;;;;;;;;;;;;;26.73;52.45;100415.91;5058216;28;1053;-43
2021/06/20 00:21:48;;;;;;;;;;;;;;;26.75;52.54;100413.03;5058230;28;752;-42
2021/06/20 00:24:13;;;;;;;;;;;;;;;26.74;52.43;100414.88;5057961;28;848;-43
2021/06/20 00:26:38;;;;;;;;;;;;;;;26.74;52.54;100414.88;5058341;28;794;-43
2021/06/20 00:29:04;;;;;;;;;;;;;;;26.69;52.45;100416.47;5058193;28;1914;-43
2021/06/20 00:31:29;;;;;;;;;;;;;;;26.77;52.58;100417.22;5057500;28;962;-43
2021/06/20 00:33:54;;;;;;;;;;;;;;;26.69;52.45;100414.63;5058322;28;814;-40
2021/06/20 00:36:20;;;;;;;;;;;;;;;26.72;52.56;100418.81;5058132;28;786;-43
2021/06/20 00:38:45;;;;;;;;;;;;;;;26.67;52.72;100415.81;5057889;28;846;-43
2021/06/20 00:41:10;;;;;;;;;;;;;;;26.73;52.28;100413.22;5057866;28;818;-37
2021/06/20 00:43:36;;;;;;;;;;;;;;;26.70;52.16;100415.44;5058040;28;807;-42
2021/06/20 00:46:03;;;;;;;;;;;;;;;26.73;52.64;100418.59;5057518;28;787;-42
2021/06/20 00:48:28;;;;;;;;;;;;;;;26.78;52.55;100415.34;5057464;28;1898;-41
2021/06/20 00:50:54;;;;;;;;;;;;;;;26.72;52.28;100411.56;5057745;28;779;-43
2021/06/20 00:53:19;;;;;;;;;;;;;;;26.69;52.41;100411.09;5057899;28;768;-42
2021/06/20 00:55:49;;;;;;;;;;;;;;;26.67;52.42;100422.06;5057838;28;1251;-43
2021/06/20 00:58:15;;;;;;;;;;;;;;;26.69;52.41;100420.03;5056273;28;839;-42
2021/06/20 01:00:40;;;;;;;;;;;;;;;26.69;52.39;100413.78;5056037;28;811;-42
2021/06/20 01:03:06;;;;;;;;;;;;;;;26.68;52.60;100415.63;5057010;28;939;-42
2021/06/20 01:05:32;;;;;;;;;;;;;;;26.65;52.39;100410.63;5057092;28;836;-42
2021/06/20 01:07:57;;;;;;;;;;;;;;;26.67;52.59;100416.69;5057178;28;1960;-42
2021/06/20 01:10:23;;;;;;;;;;;;;;;26.69;52.20;100417.31;5057571;28;728;-42
2021/06/20 01:12:48;;;;;;;;;;;;;;;26.81;51.65;100416.84;5057389;28;1347;-41
2021/06/20 01:15:14;;;;;;;;;;;;;;;26.80;51.37;100413.28;5056944;28;768;-43
2021/06/20 01:17:39;;;;;;;;;;;;;;;26.74;51.78;100406.78;5056653;28;951;-37
2021/06/20 01:20:05;;;;;;;;;;;;;;;26.81;51.44;100408.75;5057052;28;1175;-37
2021/06/20 01:22:32;;;;;;;;;;;;;;;26.80;51.53;100409.75;5056794;28;518;-43
2021/06/20 01:24:58;;;;;;;;;;;;;;;26.81;51.17;100401.47;5056567;28;772;-40
2021/06/20 01:27:24;;;;;;;;;;;;;;;26.75;51.76;100402.22;5057242;28;823;-43
2021/06/20 01:29:50;;;;;;;;;;;;;;;26.73;51.70;100396.19;5056978;28;1914;-42
2021/06/20 01:32:16;;;;;;;;;;;;;;;26.75;51.62;100407.63;5056465;28;963;-37
2021/06/20 01:34:41;;;;;;;;;;;;;;;26.77;51.58;100410.97;5057096;28;775;-36
2021/06/20 01:37:10;;;;;;;;;;;;;;;26.84;51.39;100406.47;5056679;28;736;-44
2021/06/20 01:39:36;;;;;;;;;;;;;;;26.71;51.53;100407.16;5056948;28;739;-44
2021/06/20 01:42:01;;;;;;;;;;;;;;;26.70;51.35;100405.50;5057167;28;727;-44
2021/06/20 01:44:27;;;;;;;;;;;;;;;26.70;51.58;100407.34;5056153;28;878;-43
2021/06/20 01:46:52;;;;;;;;;;;;;;;26.80;51.16;100399.81;5056411;28;999;-44
2021/06/20 01:49:17;;;;;;;;;;;;;;;26.80;51.19;100405.19;5056666;28;1973;-38
2021/06/20 01:51:43;;;;;;;;;;;;;;;26.80;51.17;100401.66;5056213;28;886;-36
2021/06/20 01:54:08;;;;;;;;;;;;;;;26.79;50.94;100398.16;5056530;28;817;-42
2021/06/20 01:56:33;;;;;;;;;;;;;;;26.80;50.85;100404.34;5056511;28;827;-43
2021/06/20 01:58:58;;;;;;;;;;;;;;;26.82;51.02;100403.16;5056489;28;894;-43
2021/06/20 02:01:24;;;;;;;;;;;;;;;26.75;50.80;100402.22;5056067;28;939;-36
2021/06/20 02:03:49;;;;;;;;;;;;;;;26.80;50.87;100402.50;5056612;28;740;-43
2021/06/20 02:06:14;;;;;;;;;;;;;;;26.72;51.05;100410.72;5056285;28;847;-43
2021/06/20 02:08:40;;;;;;;;;;;;;;;26.70;50.71;100407.34;5056488;28;1902;-42
2021/06/20 02:11:05;;;;;;;;;;;;;;;26.71;51.07;100403.66;5056533;28;787;-36
2021/06/20 02:13:30;;;;;;;;;;;;;;;26.73;50.98;100397.03;5056282;28;1178;-43
2021/06/20 02:15:56;;;;;;;;;;;;;;;26.73;50.62;100397.03;5056048;28;863;-44
2021/06/20 02:18:21;;;;;;;;;;;;;;;26.79;50.38;100403.53;5054797;28;1110;-43
2021/06/20 02:20:47;;;;;;;;;;;;;;;26.81;50.28;100406.03;5056300;28;731;-43
2021/06/20 02:23:12;;;;;;;;;;;;;;;26.70;50.68;100397.41;5056155;28;793;-43
2021/06/20 02:25:37;;;;;;;;;;;;;;;26.80;50.43;100399.81;5056099;28;799;-38
2021/06/20 02:28:03;;;;;;;;;;;;;;;26.86;50.03;100407.13;5057192;28;1906;-44
2021/06/20 02:30:28;;;;;;;;;;;;;;;26.80;50.37;100415.16;5060450;28;746;-43
2021/06/20 02:32:54;;;;;;;;;;;;;;;26.78;50.06;100408.09;5060105;28;963;-36
2021/06/20 02:35:19;;;;;;;;;;;;;;;26.78;50.13;100421.59;5060175;28;827;-43
2021/06/20 02:37:45;;;;;;;;;;;;;;;26.84;49.98;100419.16;5059924;28;799;-38
2021/06/20 02:40:10;;;;;;;;;;;;;;;26.78;50.35;100418.88;5059816;28;851;-44
2021/06/20 02:42:35;;;;;;;;;;;;;;;26.78;50.10;100421.59;5060600;28;826;-44
2021/06/20 02:45:01;;;;;;;;;;;;;;;26.76;50.11;100428.19;5059971;28;796;-43
2021/06/20 02:47:26;;;;;;;;;;;;;;;26.82;49.88;100419.34;5059498;28;1002;-43
2021/06/20 02:49:52;;;;;;;;;;;;;;;26.80;49.82;100421.41;5060006;28;1889;-37
2021/06/20 02:52:17;;;;;;;;;;;;;;;26.85;49.85;100423.50;5059890;28;835;-44
2021/06/20 02:54:52;;;;;;;;;;;;;;;26.84;49.57;100433.47;5059885;28;781;-44
2021/06/20 02:57:18;;;;;;;;;;;;;;;26.87;49.66;100426.88;5059925;28;801;-42
2021/06/20 02:59:43;;;;;;;;;;;;;;;26.85;49.45;100426.22;5059421;28;839;-37
2021/06/20 03:02:08;;;;;;;;;;;;;;;26.78;49.76;100426.13;5059519;28;959;-41
2021/06/20 03:04:34;;;;;;;;;;;;;;;26.85;49.66;100431.63;5060210;28;835;-37
2021/06/20 03:06:59;;;;;;;;;;;;;;;26.79;49.72;100427.81;5059578;28;812;-41
2021/06/20 03:09:24;;;;;;;;;;;;;;;26.84;49.48;100433.47;5059709;28;1906;-41
2021/06/20 03:11:49;;;;;;;;;;;;;;;26.81;49.14;100430.34;5059555;28;1116;-42
2021/06/20 03:14:15;;;;;;;;;;;;;;;26.64;47.67;100433.25;5059507;28;825;-36
2021/06/20 03:16:43;;;;;;;;;;;;;;;26.64;47.03;100427.84;5058674;28;1030;-41
2021/06/20 03:19:09;;;;;;;;;;;;;;;26.11;47.64;100424.16;5059730;28;1302;-40
2021/06/20 03:21:34;;;;;;;;;;;;;;;26.15;47.66;100421.94;5058962;28;855;-41
2021/06/20 03:24:00;;;;;;;;;;;;;;;25.95;47.89;100422.47;5059572;28;819;-41
2021/06/20 03:26:25;;;;;;;;;;;;;;;25.94;47.92;100426.22;5058122;28;1084;-40
2021/06/20 03:28:50;;;;;;;;;;;;;;;25.79;48.11;100418.91;5057733;28;1967;-39
2021/06/20 03:31:18;;;;;;;;;;;;;;;25.66;48.30;100413.28;5058959;28;954;-39
2021/06/20 03:33:44;;;;;;;;;;;;;;;25.62;48.47;100420.03;5059126;28;812;-39
2021/06/20 03:36:09;;;;;;;;;;;;;;;25.50;48.52;100412.41;5058734;28;803;-39
2021/06/20 03:38:34;;;;;;;;;;;;;;;25.40;48.94;100415.34;5059120;28;831;-39
2021/06/20 03:41:00;;;;;;;;;;;;;;;25.44;49.06;100427.41;5058793;28;803;-39
2021/06/20 03:43:25;;;;;;;;;;;;;;;25.45;48.91;100420.16;5059078;28;720;-39
2021/06/20 03:45:50;;;;;;;;;;;;;;;25.35;49.22;100412.34;5059161;28;756;-37
2021/06/20 03:48:15;;;;;;;;;;;;;;;25.35;49.13;100419.56;5058295;28;1906;-39
2021/06/20 03:50:41;;;;;;;;;;;;;;;25.47;49.09;100420.00;5057350;28;1104;-40
2021/06/20 03:53:06;;;;;;;;;;;;;;;25.56;47.28;100410.81;5058070;28;1546;-42
2021/06/20 03:55:31;;;;;;;;;;;;;;;25.74;47.04;100410.53;5058911;28;828;-40
2021/06/20 03:57:57;;;;;;;;;;;;;;;25.54;47.66;100418.25;5058594;28;823;-38
2021/06/20 04:00:22;;;;;;;;;;;;;;;25.10;49.18;100412.50;5058826;28;849;-39
2021/06/20 04:02:47;;;;;;;;;;;;;;;24.82;50.15;100411.09;5057858;28;995;-38
2021/06/20 04:05:14;;;;;;;;;;;;;;;24.73;50.49;100398.69;5038787;28;816;-38
2021/06/20 04:07:40;;;;;;;;;;;;;;;24.68;50.36;100399.22;5038942;28;774;-36
2021/06/20 04:10:05;;;;;;;;;;;;;;;24.58;46.66;100402.13;5038543;28;1968;-36
2021/06/20 04:12:31;;;;;;;;;;;;;;;23.99;44.63;100403.25;5048741;28;1096;-40
2021/06/20 04:14:56;;;;;;;;;;;;;;;22.97;45.00;100403.31;5058652;28;834;-40
2021/06/20 04:17:22;;;;;;;;;;;;;;;22.91;44.74;100405.81;5057962;28;820;-39
2021/06/20 04:19:47;;;;;;;;;;;;;;;22.46;45.17;100406.81;5057724;28;1257;-39
2021/06/20 04:22:13;;;;;;;;;;;;;;;21.90;46.54;100405.28;5058522;28;771;-36
2021/06/20 04:24:38;;;;;;;;;;;;;;;21.52;47.56;100404.63;5057977;28;835;-36
2021/06/20 04:27:03;;;;;;;;;;;;;;;21.48;47.03;100401.41;5058458;28;740;-36
2021/06/20 04:29:28;;;;;;;;;;;;;;;21.08;47.59;100405.34;5057890;28;1981;-37
2021/06/20 04:31:54;;;;;;;;;;;;;;;20.94;47.85;100401.38;5057782;28;1011;-36
2021/06/20 04:34:19;;;;;;;;;;;;;;;20.83;48.12;100397.88;5058564;28;819;-38
2021/06/20 04:36:44;;;;;;;;;;;;;;;20.43;48.63;100398.06;5057905;28;834;-38
2021/06/20 04:39:10;;;;;;;;;;;;;;;20.53;48.30;100390.00;5058378;28;791;-39
2021/06/20 04:41:35;;;;;;;;;;;;;;;20.30;48.95;100390.34;5057720;28;839;-36
2021/06/20 04:44:03;;;;;;;;;;;;;;;20.29;48.69;100394.03;5057745;28;783;-36
2021/06/20 04:46:33;;;;;;;;;;;;;;;20.12;50.67;100394.78;5057633;28;1006;-36
2021/06/20 04:48:59;;;;;;;;;;;;;;;20.08;50.57;100390.72;5057795;28;1968;-38
2021/06/20 04:51:24;;;;;;;;;;;;;;;20.15;51.56;100384.63;5057239;28;713;-41
2021/06/20 04:53:49;;;;;;;;;;;;;;;20.14;51.00;100390.97;5057873;28;797;-37
2021/06/20 04:56:15;;;;;;;;;;;;;;;20.20;52.17;100392.25;5057849;28;756;-38
2021/06/20 04:58:41;;;;;;;;;;;;;;;20.12;52.08;100395.59;5057352;28;842;-43
2021/06/20 05:01:06;;;;;;;;;;;;;;;19.25;52.10;100392.84;5057431;28;762;-39
2021/06/20 05:03:31;;;;;;;;;;;;;;;18.42;53.60;100400.00;5057263;28;1230;-50
2021/06/20 05:05:56;;;;;;;;;;;;;;;18.21;53.55;100403.56;5057046;28;953;-43
2021/06/20 05:08:22;;;;;;;;;;;;;;;18.02;54.36;100410.41;5057294;28;1969;-44
2021/06/20 05:10:48;;;;;;;;;;;;;;;18.60;55.97;100417.03;5057054;28;1417;-37
2021/06/20 05:13:13;;;;;;;;;;;;;;;19.21;56.45;100414.47;5056980;28;985;-43
2021/06/20 05:15:38;;;;;;;;;;;;;;;19.14;55.82;100415.97;5057378;28;772;-43
2021/06/20 05:18:03;;;;;;;;;;;;;;;20.89;54.00;100416.00;5042535;28;1006;-43
2021/06/20 05:20:29;;;;;;;;;;;;;;;21.88;53.23;100427.88;5036566;28;1315;-42
2021/06/20 05:22:54;;;;;;;;;;;;;;;22.37;53.47;100418.50;5038199;28;763;-42
2021/06/20 05:25:19;;;;;;;;;;;;;;;22.68;52.89;100422.50;5057224;28;800;-43
2021/06/20 05:27:44;;;;;;;;;;;;;;;22.98;52.81;100420.28;5056835;28;820;-39
2021/06/20 05:30:10;;;;;;;;;;;;;;;23.19;53.56;100421.69;5057055;28;1898;-43
2021/06/20 05:32:35;;;;;;;;;;;;;;;23.40;53.52;100415.03;5057104;28;966;-37
2021/06/20 05:35:01;;;;;;;;;;;;;;;23.51;53.38;100413.84;5053954;28;764;-42
2021/06/20 05:37:26;;;;;;;;;;;;;;;23.58;52.78;100420.22;5037009;28;824;-43
2021/06/20 05:39:52;;;;;;;;;;;;;;;23.72;53.73;100422.25;5036786;28;821;-41
2021/06/20 05:42:17;;;;;;;;;;;;;;;23.93;52.52;100428.97;5036692;28;801;-39
2021/06/20 05:44:42;;;;;;;;;;;;;;;23.93;52.87;100423.59;5036905;28;878;-42
2021/06/20 05:47:07;;;;;;;;;;;;;;;24.11;52.55;100425.25;5044763;28;1165;-38
2021/06/20 05:49:33;;;;;;;;;;;;;;;24.08;51.67;100425.59;5054818;28;1906;-41
2021/06/20 05:51:58;;;;;;;;;;;;;;;23.95;52.78;100421.59;5056560;28;843;-42
2021/06/20 05:54:23;;;;;;;;;;;;;;;24.12;52.53;100424.25;5056767;28;744;-44
2021/06/20 05:56:49;;;;;;;;;;;;;;;24.04;53.05;100416.19;5056339;28;776;-43
2021/06/20 05:59:14;;;;;;;;;;;;;;;24.16;53.23;100422.91;5056452;28;751;-39
2021/06/20 06:01:39;;;;;;;;;;;;;;;24.26;51.48;100420.03;5056360;28;943;-41
2021/06/20 06:04:04;;;;;;;;;;;;;;;24.49;49.50;100419.28;5055437;28;759;-40
2021/06/20 06:06:31;;;;;;;;;;;;;;;24.64;49.70;100430.16;5056619;28;767;-43
2021/06/20 06:08:56;;;;;;;;;;;;;;;24.69;49.72;100433.16;5056538;28;1906;-42
2021/06/20 06:11:21;;;;;;;;;;;;;;;24.77;48.27;100426.09;5055883;28;1175;-39
2021/06/20 06:13:47;;;;;;;;;;;;;;;24.76;47.86;100433.31;5056471;28;775;-40
2021/06/20 06:16:12;;;;;;;;;;;;;;;24.83;46.25;100434.31;5056258;28;962;-39
2021/06/20 06:18:37;;;;;;;;;;;;;;;24.99;46.97;100432.56;5055308;28;1288;-40
2021/06/20 06:21:03;;;;;;;;;;;;;;;25.00;47.27;100436.09;5055862;28;816;-41
2021/06/20 06:23:28;;;;;;;;;;;;;;;25.12;47.25;100432.00;5055088;28;1260;-40
2021/06/20 06:25:53;;;;;;;;;;;;;;;25.15;47.26;100434.34;5055934;28;870;-41
2021/06/20 06:28:18;;;;;;;;;;;;;;;25.11;45.73;100427.63;5056369;28;1976;-39
2021/06/20 06:30:44;;;;;;;;;;;;;;;25.06;45.50;100424.63;5056200;28;929;-39
2021/06/20 06:33:09;;;;;;;;;;;;;;;25.08;45.27;100422.59;5055218;28;1184;-40
2021/06/20 06:35:34;;;;;;;;;;;;;;;25.04;44.27;100419.41;5056320;28;831;-40
2021/06/20 06:38:00;;;;;;;;;;;;;;;24.97;44.09;100413.09;5056324;28;782;-39
2021/06/20 06:40:25;;;;;;;;;;;;;;;24.99;43.99;100416.41;5055566;28;756;-39
2021/06/20 06:42:50;;;;;;;;;;;;;;;25.06;44.45;100413.84;5056307;28;760;-40
2021/06/20 06:45:16;;;;;;;;;;;;;;;25.22;44.61;100417.47;5055987;28;835;-40
2021/06/20 06:47:42;;;;;;;;;;;;;;;25.25;44.93;100409.88;5055489;28;1011;-39
2021/06/20 06:50:07;;;;;;;;;;;;;;;25.33;45.29;100421.59;5055444;28;1957;-41
2021/06/20 06:52:33;;;;;;;;;;;;;;;25.26;44.51;100413.38;5056503;28;720;-40
2021/06/20 06:54:58;;;;;;;;;;;;;;;25.19;44.00;100416.81;5055980;28;788;-39
2021/06/20 06:57:23;;;;;;;;;;;;;;;25.13;43.79;100417.53;5055921;28;719;-40
2021/06/20 06:59:49;;;;;;;;;;;;;;;25.12;43.42;100420.41;5056285;28;718;-40
2021/06/20 07:02:16;;;;;;;;;;;;;;;25.16;42.97;100424.38;5055584;28;998;-40
2021/06/20 07:04:41;;;;;;;;;;;;;;;25.16;43.01;100417.16;5055739;28;745;-40
2021/06/20 07:07:06;;;;;;;;;;;;;;;25.17;42.94;100415.31;5056131;28;859;-40
2021/06/20 07:09:32;;;;;;;;;;;;;;;25.27;44.18;100404.31;5054180;28;1972;-40
2021/06/20 07:11:58;;;;;;;;;;;;;;;25.34;45.16;100409.81;5055520;28;1128;-39
2021/06/20 07:14:23;;;;;;;;;;;;;;;25.39;45.72;100402.88;5057307;28;791;-40
2021/06/20 07:16:48;;;;;;;;;;;;;;;25.38;46.17;100398.50;5059245;28;955;-39
2021/06/20 07:19:14;;;;;;;;;;;;;;;25.41;45.37;100391.91;5059155;28;1304;-40
2021/06/20 07:21:39;;;;;;;;;;;;;;;25.35;44.53;100396.19;5059383;28;776;-40
2021/06/20 07:24:05;;;;;;;;;;;;;;;25.36;44.46;100391.66;5059521;28;780;-39
2021/06/20 07:26:30;;;;;;;;;;;;;;;25.33;43.66;100390.13;5059547;28;772;-40
2021/06/20 07:28:56;;;;;;;;;;;;;;;25.35;43.51;100387.25;5059375;28;1914;-40
2021/06/20 07:31:22;;;;;;;;;;;;;;;25.42;43.64;100390.91;5058267;28;982;-39
2021/06/20 07:33:48;;;;;;;;;;;;;;;25.36;43.19;100391.66;5059383;28;776;-40
2021/06/20 07:36:15;;;;;;;;;;;;;;;25.36;42.99;100392.47;5058941;28;821;-39
2021/06/20 07:38:41;;;;;;;;;;;;;;;25.34;42.79;100393.66;5058902;28;792;-40
2021/06/20 07:41:06;;;;;;;;;;;;;;;25.35;42.92;100392.63;5059013;28;786;-39
2021/06/20 07:43:31;;;;;;;;;;;;;;;25.37;42.85;100388.78;5059020;28;801;-39
2021/06/20 07:45:56;;;;;;;;;;;;;;;25.39;42.48;100384.00;5059162;28;910;-39
2021/06/20 07:48:22;;;;;;;;;;;;;;;25.46;42.18;100392.22;5057928;28;1905;-39
2021/06/20 07:50:48;;;;;;;;;;;;;;;25.47;42.45;100388.53;5058827;28;816;-39
2021/06/20 07:53:13;;;;;;;;;;;;;;;25.49;42.30;100391.03;5059407;28;787;-39
2021/06/20 07:55:39;;;;;;;;;;;;;;;25.52;42.36;100396.06;5058792;28;751;-39
2021/06/20 07:58:04;;;;;;;;;;;;;;;25.48;42.62;100389.34;5058725;28;806;-39
2021/06/20 08:00:30;;;;;;;;;;;;;;;25.54;42.67;100385.94;5058869;28;807;-39
2021/06/20 08:02:55;;;;;;;;;;;;;;;25.53;42.49;100387.78;5057969;28;1018;-39
2021/06/20 08:05:20;;;;;;;;;;;;;;;25.55;42.63;100384.91;5058618;28;768;-40
2021/06/20 08:07:46;;;;;;;;;;;;;;;25.61;42.82;100392.25;5058927;28;826;-39
2021/06/20 08:10:11;;;;;;;;;;;;;;;25.65;42.80;100393.63;5058162;28;1960;-39
2021/06/20 08:12:36;;;;;;;;;;;;;;;25.60;42.81;100392.44;5058400;28;1191;-40
2021/06/20 08:15:02;;;;;;;;;;;;;;;25.67;42.95;100401.50;5058317;28;882;-39
2021/06/20 08:17:27;;;;;;;;;;;;;;;25.68;42.76;100393.25;5057839;28;1018;-40
2021/06/20 08:19:52;;;;;;;;;;;;;;;25.66;42.68;100397.13;5058340;28;1084;-39
2021/06/20 08:22:19;;;;;;;;;;;;;;;25.66;42.67;100397.97;5058405;28;750;-39
2021/06/20 08:24:44;;;;;;;;;;;;;;;25.64;42.85;100391.09;5058014;28;726;-39
2021/06/20 08:27:09;;;;;;;;;;;;;;;25.65;42.55;100390.94;5057432;28;795;-39
2021/06/20 08:29:35;;;;;;;;;;;;;;;25.66;42.66;100389.03;5058198;28;1922;-38
2021/06/20 08:32:00;;;;;;;;;;;;;;;25.64;42.67;100388.41;5057328;28;987;-38
2021/06/20 08:34:26;;;;;;;;;;;;;;;25.71;42.75;100389.34;5058286;28;759;-40
2021/06/20 08:36:51;;;;;;;;;;;;;;;25.78;42.83;100398.38;5058293;28;790;-40
2021/06/20 08:39:16;;;;;;;;;;;;;;;25.76;42.71;100400.41;5057614;28;823;-40
2021/06/20 08:41:42;;;;;;;;;;;;;;;25.74;42.68;100391.66;5058022;28;744;-39
2021/06/20 08:44:34;;;;;;;;;;;;;;;25.82;42.88;100396.16;5058380;28;983;-40
2021/06/20 08:47:00;;;;;;;;;;;;;;;25.81;42.73;100386.38;5054045;28;1552;-41
2021/06/20 08:49:25;;;;;;;;;;;;;;;25.80;42.77;100385.56;5057996;28;1964;-40
2021/06/20 08:51:51;;;;;;;;;;;;;;;25.82;42.46;100384.53;5057721;28;736;-39
2021/06/20 08:54:16;;;;;;;;;;;;;;;25.79;42.57;100385.75;5057259;28;906;-39
2021/06/20 08:56:42;;;;;;;;;;;;;;;25.84;42.98;100391.41;5057882;28;788;-39
2021/06/20 08:59:07;;;;;;;;;;;;;;;25.79;42.90;100391.16;5057303;28;791;-39
2021/06/20 09:01:33;;;;;;;;;;;;;;;25.85;42.63;100393.09;5056861;28;990;-39
2021/06/20 09:03:58;;;;;;;;;;;;;;;25.87;42.51;100398.31;5057509;28;815;-39
2021/06/20 09:06:24;;;;;;;;;;;;;;;25.85;42.57;100394.94;5057558;28;776;-39
2021/06/20 09:08:56;;;;;;;;;;;;;;;25.85;42.71;100389.56;5056849;28;1898;-39
2021/06/20 09:11:24;;;;;;;;;;;;;;;25.79;42.53;100385.75;5057388;28;1136;-39
2021/06/20 09:13:50;;;;;;;;;;;;;;;25.85;42.22;100386.88;5057192;28;996;-39
2021/06/20 09:16:17;;;;;;;;;;;;;;;25.87;42.74;100391.06;5056602;28;1019;-40
2021/06/20 09:18:52;;;;;;;;;;;;;;;25.80;42.81;100390.13;5056948;28;1068;-40
2021/06/20 09:21:17;;;;;;;;;;;;;;;25.93;42.64;100392.19;5057413;28;821;-39
2021/06/20 09:23:42;;;;;;;;;;;;;;;25.84;42.76;100393.28;5056815;28;874;-37
2021/06/20 09:26:08;;;;;;;;;;;;;;;26.13;41.98;100391.63;5057067;28;810;-39
2021/06/20 09:28:35;;;;;;;;;;;;;;;26.04;41.96;100386.31;5056731;28;1963;-38
2021/06/20 09:31:00;;;;;;;;;;;;;;;26.25;41.57;100394.72;5056808;28;775;-39
2021/06/20 09:33:28;;;;;;;;;;;;;;;26.21;41.55;100385.34;5056485;28;998;-39
2021/06/20 09:35:57;;;;;;;;;;;;;;;26.13;41.68;100392.47;5057026;28;827;-40
2021/06/20 09:38:29;;;;;;;;;;;;;;;26.27;41.41;100387.28;5055245;28;803;-38
2021/06/20 09:41:07;;;;;;;;;;;;;;;26.26;41.57;100385.59;5056696;28;839;-43
2021/06/20 09:43:33;;;;;;;;;;;;;;;26.55;41.71;100385.78;5056362;28;864;-42
2021/06/20 09:45:58;;;;;;;;;;;;;;;26.67;41.24;100376.19;5056959;28;796;-42
2021/06/20 09:48:24;;;;;;;;;;;;;;;26.37;41.48;100371.69;5056592;28;1905;-41
2021/06/20 09:50:50;;;;;;;;;;;;;;;26.28;41.39;100379.00;5056670;28;749;-41
2021/06/20 09:53:18;;;;;;;;;;;;;;;26.57;41.14;100373.81;5056067;28;1502;-41
2021/06/20 09:55:43;;;;;;;;;;;;;;;26.71;41.17;100372.09;5056653;28;858;-41
2021/06/20 09:58:09;;;;;;;;;;;;;;;26.83;41.30;100371.59;5056782;28;815;-41
2021/06/20 10:00:38;;;;;;;;;;;;;;;26.78;41.86;100373.00;5056356;28;811;-41
2021/06/20 10:03:03;;;;;;;;;;;;;;;26.87;42.03;100375.59;5056111;28;963;-41
2021/06/20 10:05:29;;;;;;;;;;;;;;;26.76;42.45;100375.06;5056941;28;799;-41
2021/06/20 10:07:54;;;;;;;;;;;;;;;26.75;42.93;100367.16;5056375;28;764;-41
2021/06/20 10:10:19;;;;;;;;;;;;;;;26.69;42.66;100367.91;5056519;28;1906;-41
2021/06/20 10:12:45;;;;;;;;;;;;;;;26.51;42.57;100361.91;5056836;28;1203;-41
2021/06/20 10:15:11;;;;;;;;;;;;;;;26.64;42.35;100369.31;5056063;28;803;-42
2021/06/20 10:17:37;;;;;;;;;;;;;;;26.70;43.06;100365.03;5054855;28;948;-41
2021/06/20 10:20:06;;;;;;;;;;;;;;;26.75;43.28;100359.06;5055090;28;1203;-42
2021/06/20 10:22:38;;;;;;;;;;;;;;;26.72;43.92;100356.75;5054808;28;832;-41
2021/06/20 10:25:07;;;;;;;;;;;;;;;26.70;43.35;100354.25;5056238;28;791;-41
2021/06/20 10:27:33;;;;;;;;;;;;;;;26.66;43.39;100355.63;5056379;28;808;-42
2021/06/20 10:29:59;;;;;;;;;;;;;;;26.35;42.85;100356.72;5055816;28;1913;-42
2021/06/20 10:32:25;;;;;;;;;;;;;;;26.49;42.42;100360.44;5056225;28;1038;-42
2021/06/20 10:34:52;;;;;;;;;;;;;;;26.43;42.40;100361.16;5056417;28;717;-42
2021/06/20 10:37:18;;;;;;;;;;;;;;;26.49;42.01;100357.72;5055884;28;815;-43
2021/06/20 10:39:47;;;;;;;;;;;;;;;26.32;42.23;100359.75;5056437;28;845;-42
2021/06/20 10:42:12;;;;;;;;;;;;;;;26.20;42.92;100362.91;5056282;28;820;-42
2021/06/20 10:44:42;;;;;;;;;;;;;;;26.04;43.42;100362.06;5056218;28;771;-41
2021/06/20 10:47:07;;;;;;;;;;;;;;;26.01;43.13;100361.59;5055688;28;967;-42
2021/06/20 10:49:32;;;;;;;;;;;;;;;26.00;43.26;100360.78;5056821;28;1902;-42
2021/06/20 10:51:57;;;;;;;;;;;;;;;26.01;42.98;100357.06;5059665;28;835;-41
2021/06/20 10:54:26;;;;;;;;;;;;;;;25.85;43.66;100355.38;5060584;28;752;-41
2021/06/20 10:56:58;;;;;;;;;;;;;;;25.71;43.96;100354.31;5060137;28;780;-41
2021/06/20 10:59:24;;;;;;;;;;;;;;;25.71;44.13;100356.19;5059796;28;739;-41
2021/06/20 11:01:49;;;;;;;;;;;;;;;25.71;44.24;100354.31;5059302;28;947;-41
2021/06/20 11:04:14;;;;;;;;;;;;;;;25.70;43.97;100352.66;5060020;28;780;-41
2021/06/20 11:06:50;;;;;;;;;;;;;;;25.53;44.48;100351.94;5059908;28;744;-42
2021/06/20 11:09:15;;;;;;;;;;;;;;;25.56;44.54;100346.19;5058538;28;1906;-42
2021/06/20 11:12:04;;;;;;;;;;;;;;;25.53;44.34;100342.00;5059784;28;1336;-41
2021/06/20 11:14:29;;;;;;;;;;;;;;;25.33;45.24;100341.66;5059277;28;760;-41
2021/06/20 11:16:55;;;;;;;;;;;;;;;25.48;44.90;100348.94;5059408;28;962;-42
2021/06/20 11:19:21;;;;;;;;;;;;;;;25.27;45.13;100345.94;5059415;28;1085;-41
2021/06/20 11:21:53;;;;;;;;;;;;;;;25.40;46.46;100347.16;5058927;28;788;-43
2021/06/20 11:24:19;;;;;;;;;;;;;;;25.75;46.28;100347.56;5059814;28;818;-38
2021/06/20 11:26:54;;;;;;;;;;;;;;;25.91;46.32;100345.69;5059292;28;817;-41
2021/06/20 11:29:21;;;;;;;;;;;;;;;26.04;46.28;100350.47;5059138;28;1909;-41
2021/06/20 11:31:53;;;;;;;;;;;;;;;25.87;44.52;100347.09;5059309;28;1045;-41
2021/06/20 11:34:18;;;;;;;;;;;;;;;25.66;44.87;100352.19;5059497;28;822;-41
2021/06/20 11:36:43;;;;;;;;;;;;;;;25.51;46.16;100349.44;5058958;28;838;-42
2021/06/20 11:39:09;;;;;;;;;;;;;;;25.64;46.73;100356.91;5059252;28;822;-41
2021/06/20 11:41:45;;;;;;;;;;;;;;;25.89;47.80;100351.28;5059206;28;841;-41
2021/06/20 11:44:10;;;;;;;;;;;;;;;25.67;45.43;100353.03;5059314;28;814;-39
2021/06/20 11:46:36;;;;;;;;;;;;;;;25.56;45.52;100349.72;5058636;28;1013;-41
2021/06/20 11:49:05;;;;;;;;;;;;;;;25.85;46.23;100349.16;5059353;28;1940;-39
2021/06/20 11:51:35;;;;;;;;;;;;;;;25.90;47.65;100347.59;5058868;28;744;-41
2021/06/20 11:54:09;;;;;;;;;;;;;;;25.60;51.72;100347.50;5058824;28;800;-38
2021/06/20 11:56:34;;;;;;;;;;;;;;;25.48;52.46;100346.25;5058918;28;902;-39
2021/06/20 11:59:00;;;;;;;;;;;;;;;25.85;50.83;100349.16;5058283;28;875;-38
2021/06/20 12:01:36;;;;;;;;;;;;;;;25.89;50.46;100339.69;5057012;28;982;-41
2021/06/20 12:04:02;;;;;;;;;;;;;;;25.70;52.81;100339.19;5059293;28;829;-41
2021/06/20 12:06:27;;;;;;;;;;;;;;;25.82;51.77;100336.03;5058259;28;792;-40
2021/06/20 12:08:52;;;;;;;;;;;;;;;25.88;52.17;100343.38;5058550;28;2003;-38
2021/06/20 12:11:27;;;;;;;;;;;;;;;25.71;52.55;100335.47;5057558;28;1151;-40
2021/06/20 12:13:52;;;;;;;;;;;;;;;25.73;53.11;100335.28;5058189;28;839;-40
2021/06/20 12:16:18;;;;;;;;;;;;;;;25.96;51.58;100332.50;5058311;28;1084;-40
2021/06/20 12:18:43;;;;;;;;;;;;;;;26.02;51.84;100320.16;5058429;28;1393;-40
2021/06/20 12:21:08;;;;;;;;;;;;;;;25.81;51.75;100324.41;5058117;28;735;-40
2021/06/20 12:23:35;;;;;;;;;;;;;;;26.06;49.55;100324.16;5058573;28;756;-37
2021/06/20 12:26:01;;;;;;;;;;;;;;;25.86;51.50;100321.19;5057919;28;863;-37
2021/06/20 12:28:27;;;;;;;;;;;;;;;25.99;51.60;100331.31;5057926;28;1914;-40
2021/06/20 12:30:53;;;;;;;;;;;;;;;25.76;53.29;100332.22;5057986;28;819;-40
2021/06/20 12:33:19;;;;;;;;;;;;;;;26.00;51.04;100335.69;5057828;28;951;-40
2021/06/20 12:35:46;;;;;;;;;;;;;;;25.84;55.99;100339.41;5057746;28;780;-39
2021/06/20 12:38:15;;;;;;;;;;;;;;;25.74;55.86;100345.06;5057973;28;798;-40
2021/06/20 12:40:41;;;;;;;;;;;;;;;25.49;56.97;100334.47;5058188;28;783;-40
2021/06/20 12:43:06;;;;;;;;;;;;;;;25.41;57.11;100336.22;5057898;28;779;-40
2021/06/20 12:45:32;;;;;;;;;;;;;;;25.38;58.24;100331.19;5057856;28;837;-41
2021/06/20 12:47:58;;;;;;;;;;;;;;;25.22;58.24;100329.47;5057188;28;991;-40